Scf Alpine — A8XQ2 — position and weather

sailwx.info

Track history (hours):
 
Tides and Currents Weather Stations Pressure Air Temp Water Temp Dewpoint Dewpoint Depression Visibility Wind Speed Wind Dir Waves Ship Positions

Scf Alpine

Last reported at 2018-Jan-07 15:38 UTC. Time now 2018-Jan-22 18:36 UTC.
Position N 23°45' E 123°00'.
Warning: this ship's position is 15 days out of date.

Length 228 m; draft 8 m.

Type: Ship. MMSI: 636014957.

Date/timePositionNaut miles runAvg speedWind from/ knotsBaromVisibWave heightAir tempDewpointWater temp
2018-Jan-07 15:38N 23°45' E 123°00'212.7
2018-Jan-07 15:30N 23°46' E 123°01'612.9
2018-Jan-07 15:00N 23°52' E 123°04'713.0
2018-Jan-07 14:30N 23°58' E 123°06'612.9
2018-Jan-07 14:00N 24°04' E 123°10'612.5
2018-Jan-07 13:30N 24°09' E 123°13'612.2
2018-Jan-07 13:00N 24°15' E 123°16'612.6
2018-Jan-07 12:30N 24°20' E 123°20'713.4
2018-Jan-07 12:00N 24°26' E 123°23'713.4
2018-Jan-07 11:30N 24°32' E 123°26'713.5
2018-Jan-07 11:00N 24°38' E 123°29'713.1
2018-Jan-07 10:30N 24°44' E 123°33'612.9
2018-Jan-07 10:00N 24°50' E 123°36'612.9
2018-Jan-07 09:30N 24°56' E 123°39'  
Track history (hours):
 
Tides and Currents Weather Stations Pressure Air Temp Water Temp Dewpoint Dewpoint Depression Visibility Wind Speed Wind Dir Waves Ship Positions

Scf Alpine

Last reported at 2018-Jan-07 15:38 UTC. Time now 2018-Jan-22 18:36 UTC.
Position N 23°45' E 123°00'.
Warning: this ship's position is 15 days out of date.

Length 228 m; draft 8 m.

Type: Ship. MMSI: 636014957.

Date/timePositionNaut miles runAvg speedWind from/ knotsBaromVisibWave heightAir tempDewpointWater temp
2018-Jan-07 15:38N 23°45' E 123°00'212.7
2018-Jan-07 15:30N 23°46' E 123°01'612.9
2018-Jan-07 15:00N 23°52' E 123°04'713.0
2018-Jan-07 14:30N 23°58' E 123°06'612.9
2018-Jan-07 14:00N 24°04' E 123°10'612.5
2018-Jan-07 13:30N 24°09' E 123°13'612.2
2018-Jan-07 13:00N 24°15' E 123°16'612.6
2018-Jan-07 12:30N 24°20' E 123°20'713.4
2018-Jan-07 12:00N 24°26' E 123°23'713.4
2018-Jan-07 11:30N 24°32' E 123°26'713.5
2018-Jan-07 11:00N 24°38' E 123°29'713.1
2018-Jan-07 10:30N 24°44' E 123°33'612.9
2018-Jan-07 10:00N 24°50' E 123°36'612.9
2018-Jan-07 09:30N 24°56' E 123°39'  

Dump ship's entire track history